createdAt,value
2018-11-25T00:00:26.147Z,100180.61
2018-11-25T00:01:29.520Z,100180.38
2018-11-25T00:02:32.953Z,100177.05
2018-11-25T00:03:36.318Z,100178.42
2018-11-25T00:04:39.763Z,100176.35
2018-11-25T00:05:43.185Z,100171.19
2018-11-25T00:06:46.770Z,100173.70
2018-11-25T00:07:50.366Z,100171.87
2018-11-25T00:08:53.753Z,100167.51
2018-11-25T00:09:57.158Z,100167.84
2018-11-25T00:11:00.547Z,100165.75
2018-11-25T00:12:03.955Z,100169.65
2018-11-25T00:13:07.334Z,100167.80
2018-11-25T00:14:10.890Z,100165.63
2018-11-25T00:15:14.344Z,100159.78
2018-11-25T00:16:17.882Z,100164.71
2018-11-25T00:17:21.741Z,100164.38
2018-11-25T00:18:25.200Z,100167.05
2018-11-25T00:19:28.588Z,100166.23
2018-11-25T00:20:32.038Z,100164.75
2018-11-25T00:21:35.456Z,100171.06
2018-11-25T00:22:38.911Z,100163.50
2018-11-25T00:23:42.293Z,100171.19
2018-11-25T00:24:45.839Z,100163.73
2018-11-25T00:25:49.301Z,100171.30
2018-11-25T00:26:52.681Z,100158.45
2018-11-25T00:27:56.111Z,100162.81
2018-11-25T00:28:59.495Z,100162.58
2018-11-25T00:30:02.912Z,100168.09
2018-11-25T00:31:09.721Z,100163.73
2018-11-25T00:32:09.441Z,100163.50
2018-11-25T00:33:12.851Z,100166.02
2018-11-25T00:34:16.265Z,100160.62
2018-11-25T00:35:19.838Z,100158.67
2018-11-25T00:36:23.219Z,100155.45
2018-11-25T00:37:26.595Z,100155.87
2018-11-25T00:38:29.996Z,100160.47
2018-11-25T00:39:33.422Z,100157.83
2018-11-25T00:40:36.791Z,100158.63
2018-11-25T00:41:40.194Z,100163.67
2018-11-25T00:42:44.365Z,100165.97
2018-11-25T00:43:47.832Z,100161.61
2018-11-25T00:44:51.249Z,100159.55
2018-11-25T00:45:54.648Z,100159.66
2018-11-25T00:46:58.061Z,100152.94
2018-11-25T00:48:01.477Z,100160.05
2018-11-25T00:49:04.889Z,100158.10
2018-11-25T00:50:11.040Z,100157.30
2018-11-25T00:51:14.468Z,100156.15
2018-11-25T00:52:17.971Z,100156.61
2018-11-25T00:53:21.393Z,100151.91
2018-11-25T00:54:24.849Z,100145.59
2018-11-25T00:55:28.287Z,100145.59
2018-11-25T00:56:31.672Z,100144.80
2018-11-25T00:57:35.051Z,100149.95
2018-11-25T00:58:38.466Z,100144.22
2018-11-25T00:59:41.863Z,100150.30
2018-11-25T01:00:45.293Z,100147.55
2018-11-25T01:01:48.868Z,100153.16
2018-11-25T01:02:52.319Z,100144.91
2018-11-25T01:03:55.696Z,100141.92
2018-11-25T01:04:59.208Z,100141.45
2018-11-25T01:06:02.604Z,100140.08
2018-11-25T01:07:06.170Z,100136.83
2018-11-25T01:08:09.587Z,100135.80
2018-11-25T01:09:12.974Z,100142.45
2018-11-25T01:10:17.374Z,100139.23
2018-11-25T01:11:20.856Z,100132.47
2018-11-25T01:12:24.286Z,100136.82
2018-11-25T01:13:27.653Z,100139.81
2018-11-25T01:14:31.095Z,100140.84
2018-11-25T01:15:34.514Z,100140.73
2018-11-25T01:16:37.926Z,100139.93
2018-11-25T01:17:41.369Z,100149.45
2018-11-25T01:18:44.795Z,100145.02
2018-11-25T01:19:48.818Z,100145.02
2018-11-25T01:20:52.310Z,100150.18
2018-11-25T01:21:55.701Z,100145.94
2018-11-25T01:22:59.100Z,100142.27
2018-11-25T01:24:02.478Z,100140.43
2018-11-25T01:25:07.097Z,100148.12
2018-11-25T01:26:10.545Z,100143.88
2018-11-25T01:27:13.956Z,100142.84
2018-11-25T01:28:17.355Z,100146.40
2018-11-25T01:29:20.756Z,100148.69
2018-11-25T01:30:24.163Z,100145.13
2018-11-25T01:31:27.597Z,100151.22
2018-11-25T01:32:30.990Z,100150.41
2018-11-25T01:33:34.385Z,100144.67
2018-11-25T01:34:37.797Z,100144.21
2018-11-25T01:35:41.194Z,100148.34
2018-11-25T01:36:44.611Z,100150.60
2018-11-25T01:37:48.061Z,100148.19
2018-11-25T01:38:51.510Z,100148.87
2018-11-25T01:39:54.904Z,100147.27
2018-11-25T01:40:58.335Z,100147.61
2018-11-25T01:42:01.764Z,100147.61
2018-11-25T01:43:05.553Z,100148.98
2018-11-25T01:44:08.971Z,100143.02
2018-11-25T01:45:13.574Z,100147.38
2018-11-25T01:46:17.003Z,100145.67
2018-11-25T01:47:20.437Z,100141.45
2018-11-25T01:48:23.838Z,100143.19
2018-11-25T01:49:27.291Z,100143.76
2018-11-25T01:50:30.734Z,100144.56
2018-11-25T01:51:34.127Z,100146.28
2018-11-25T01:52:38.217Z,100142.04
2018-11-25T01:53:41.639Z,100145.25
2018-11-25T01:54:45.338Z,100150.19
2018-11-25T01:55:48.747Z,100151.34
2018-11-25T01:56:52.260Z,100148.12
2018-11-25T01:57:55.778Z,100145.70
2018-11-25T01:59:00.624Z,100145.70
2018-11-25T02:00:02.707Z,100150.41
2018-11-25T02:01:06.580Z,100144.44
2018-11-25T02:02:10.057Z,100145.70
2018-11-25T02:03:13.510Z,100141.58
2018-11-25T02:04:16.973Z,100145.81
2018-11-25T02:05:20.414Z,100146.70
2018-11-25T02:06:23.814Z,100142.34
2018-11-25T02:07:27.247Z,100141.87
2018-11-25T02:08:30.761Z,100151.28
2018-11-25T02:09:34.158Z,100149.67
2018-11-25T02:10:37.697Z,100146.23
2018-11-25T02:11:41.069Z,100143.25
2018-11-25T02:12:44.537Z,100151.97
2018-11-25T02:13:48.011Z,100147.27
2018-11-25T02:14:51.406Z,100144.41
2018-11-25T02:15:54.796Z,100142.69
2018-11-25T02:16:58.225Z,100144.52
2018-11-25T02:18:01.666Z,100142.83
2018-11-25T02:19:05.099Z,100138.36
2018-11-25T02:20:13.878Z,100139.16
2018-11-25T02:21:17.309Z,100141.58
2018-11-25T02:22:20.748Z,100146.97
2018-11-25T02:23:24.394Z,100143.41
2018-11-25T02:24:27.807Z,100143.98
2018-11-25T02:25:31.313Z,100135.73
2018-11-25T02:26:34.819Z,100143.98
2018-11-25T02:27:38.202Z,100138.02
2018-11-25T02:28:41.584Z,100133.09
2018-11-25T02:29:45.082Z,100134.57
2018-11-25T02:30:48.516Z,100133.42
2018-11-25T02:31:51.901Z,100132.93
2018-11-25T02:32:55.315Z,100130.29
2018-11-25T02:33:58.713Z,100130.63
2018-11-25T02:35:02.211Z,100125.13
2018-11-25T02:36:06.011Z,100124.44
2018-11-25T02:37:09.390Z,100119.04
2018-11-25T02:38:12.865Z,100117.77
2018-11-25T02:39:16.270Z,100125.23
2018-11-25T02:40:19.724Z,100121.17
2018-11-25T02:41:23.154Z,100115.78
2018-11-25T02:42:26.545Z,100117.73
2018-11-25T02:43:29.909Z,100120.83
2018-11-25T02:44:33.333Z,100120.36
2018-11-25T02:45:36.749Z,100118.75
2018-11-25T02:46:40.146Z,100120.47
2018-11-25T02:47:43.602Z,100123.10
2018-11-25T02:48:47.023Z,100119.86
2018-11-25T02:49:50.447Z,100115.83
2018-11-25T02:50:53.887Z,100120.53
2018-11-25T02:51:57.313Z,100112.16
2018-11-25T02:53:01.997Z,100115.48
2018-11-25T02:54:05.520Z,100116.39
2018-11-25T02:55:09.008Z,100111.23
2018-11-25T02:56:12.445Z,100108.81
2018-11-25T02:57:19.987Z,100107.52
2018-11-25T02:58:23.415Z,100101.55
2018-11-25T02:59:26.845Z,100106.82
2018-11-25T03:00:30.245Z,100108.53
2018-11-25T03:01:33.667Z,100109.68
2018-11-25T03:02:37.107Z,100110.02
2018-11-25T03:03:40.512Z,100112.30
2018-11-25T03:04:43.903Z,100114.02
2018-11-25T03:05:47.335Z,100109.66
2018-11-25T03:06:50.803Z,100110.58
2018-11-25T03:07:54.244Z,100110.30
2018-11-25T03:08:57.641Z,100106.52
2018-11-25T03:10:01.282Z,100109.03
2018-11-25T03:11:05.057Z,100108.58
2018-11-25T03:12:08.511Z,100112.70
2018-11-25T03:13:11.930Z,100106.73
2018-11-25T03:14:15.343Z,100105.13
2018-11-25T03:15:19.046Z,100105.13
2018-11-25T03:16:22.441Z,100114.02
2018-11-25T03:17:25.847Z,100116.54
2018-11-25T03:18:29.223Z,100117.11
2018-11-25T03:19:32.604Z,100117.45
2018-11-25T03:20:36.045Z,100115.23
2018-11-25T03:21:39.445Z,100115.58
2018-11-25T03:22:42.839Z,100114.53
2018-11-25T03:23:46.313Z,100118.20
2018-11-25T03:24:49.718Z,100117.73
2018-11-25T03:25:53.130Z,100122.42
2018-11-25T03:26:56.566Z,100113.14
2018-11-25T03:28:00.032Z,100116.45
2018-11-25T03:29:03.480Z,100111.63
2018-11-25T03:30:13.224Z,100110.02
2018-11-25T03:31:16.668Z,100111.47
2018-11-25T03:32:20.179Z,100112.04
2018-11-25T03:33:23.575Z,100110.20
2018-11-25T03:34:26.931Z,100106.41
2018-11-25T03:35:30.377Z,100109.49
2018-11-25T03:36:33.791Z,100109.49
2018-11-25T03:37:37.255Z,100109.83
2018-11-25T03:38:40.687Z,100110.16
2018-11-25T03:39:44.108Z,100111.08
2018-11-25T03:40:47.528Z,100115.43
2018-11-25T03:41:50.953Z,100109.26
2018-11-25T03:42:54.365Z,100108.35
2018-11-25T03:43:57.770Z,100109.16
2018-11-25T03:45:01.156Z,100109.86
2018-11-25T03:46:04.592Z,100104.36
2018-11-25T03:47:08.064Z,100107.58
2018-11-25T03:48:11.532Z,100105.63
2018-11-25T03:49:15.041Z,100103.95
2018-11-25T03:50:18.453Z,100107.41
2018-11-25T03:51:21.867Z,100113.70
2018-11-25T03:52:25.412Z,100111.99
2018-11-25T03:53:28.848Z,100105.45
2018-11-25T03:54:32.278Z,100112.80
2018-11-25T03:55:35.701Z,100114.41
2018-11-25T03:56:39.139Z,100114.41
2018-11-25T03:57:42.567Z,100111.42
2018-11-25T03:58:46.049Z,100114.64
2018-11-25T03:59:49.462Z,100111.89
2018-11-25T04:00:52.875Z,100120.25
2018-11-25T04:01:56.310Z,100115.89
2018-11-25T04:02:59.785Z,100116.22
2018-11-25T04:04:03.193Z,100120.76
2018-11-25T04:05:08.044Z,100118.91
2018-11-25T04:06:11.474Z,100122.00
2018-11-25T04:07:14.886Z,100123.48
2018-11-25T04:08:18.305Z,100117.51
2018-11-25T04:09:21.721Z,100118.41
2018-11-25T04:10:25.173Z,100120.70
2018-11-25T04:11:28.598Z,100117.48
2018-11-25T04:12:31.975Z,100115.03
2018-11-25T04:13:35.361Z,100116.74
2018-11-25T04:14:38.771Z,100120.40
2018-11-25T04:15:42.190Z,100123.15
2018-11-25T04:16:45.613Z,100120.50
2018-11-25T04:17:49.356Z,100119.45
2018-11-25T04:18:52.831Z,100119.22
2018-11-25T04:19:56.269Z,100116.00
2018-11-25T04:20:59.806Z,100118.75
2018-11-25T04:22:03.242Z,100121.27
2018-11-25T04:23:06.767Z,100118.28
2018-11-25T04:24:10.201Z,100123.55
2018-11-25T04:25:14.122Z,100121.91
2018-11-25T04:26:17.591Z,100124.42
2018-11-25T04:27:21.046Z,100131.05
2018-11-25T04:28:24.456Z,100125.33
2018-11-25T04:29:27.853Z,100131.16
2018-11-25T04:30:31.229Z,100130.34
2018-11-25T04:31:34.719Z,100128.73
2018-11-25T04:32:38.151Z,100126.33
2018-11-25T04:33:41.660Z,100129.41
2018-11-25T04:34:45.131Z,100127.23
2018-11-25T04:35:48.627Z,100131.11
2018-11-25T04:36:52.084Z,100128.94
2018-11-25T04:37:55.473Z,100128.13
2018-11-25T04:38:58.882Z,100132.02
2018-11-25T04:40:02.323Z,100130.41
2018-11-25T04:41:05.913Z,100131.52
2018-11-25T04:42:09.370Z,100126.83
2018-11-25T04:43:12.766Z,100123.60
2018-11-25T04:44:16.241Z,100122.80
2018-11-25T04:45:19.638Z,100124.50
2018-11-25T04:46:23.056Z,100125.08
2018-11-25T04:47:26.461Z,100122.09
2018-11-25T04:48:29.881Z,100122.66
2018-11-25T04:49:33.254Z,100121.05
2018-11-25T04:50:36.693Z,100125.73
2018-11-25T04:51:40.132Z,100123.56
2018-11-25T04:52:43.580Z,100126.64
2018-11-25T04:53:47.015Z,100126.98
2018-11-25T04:54:50.398Z,100122.05
2018-11-25T04:55:53.774Z,100122.62
2018-11-25T04:56:57.173Z,100117.19
2018-11-25T04:58:00.594Z,100112.53
2018-11-25T04:59:04.040Z,100117.76
2018-11-25T05:00:12.163Z,100119.13
2018-11-25T05:01:15.587Z,100114.20
2018-11-25T05:02:19.099Z,100111.79
2018-11-25T05:03:22.627Z,100115.11
2018-11-25T05:04:26.020Z,100118.42
2018-11-25T05:05:29.452Z,100120.94
2018-11-25T05:06:32.857Z,100118.19
2018-11-25T05:07:36.309Z,100112.45
2018-11-25T05:08:39.704Z,100112.22
2018-11-25T05:09:43.177Z,100111.66
2018-11-25T05:10:46.618Z,100112.79
2018-11-25T05:11:50.036Z,100109.23
2018-11-25T05:12:53.475Z,100111.75
2018-11-25T05:13:57.012Z,100106.02
2018-11-25T05:15:00.367Z,100107.39
2018-11-25T05:16:03.905Z,100103.03
2018-11-25T05:17:07.373Z,100109.09
2018-11-25T05:18:10.801Z,100104.70
2018-11-25T05:19:14.192Z,100103.67
2018-11-25T05:20:18.345Z,100107.45
2018-11-25T05:21:21.775Z,100102.03
2018-11-25T05:22:25.360Z,100106.98
2018-11-25T05:23:28.793Z,100103.16
2018-11-25T05:24:32.189Z,100105.11
2018-11-25T05:25:35.675Z,100099.05
2018-11-25T05:26:39.057Z,100095.26
2018-11-25T05:27:42.592Z,100095.83
2018-11-25T05:28:46.106Z,100088.48
2018-11-25T05:29:49.503Z,100091.23
2018-11-25T05:30:53.015Z,100091.00
2018-11-25T05:31:56.411Z,100088.25
2018-11-25T05:32:59.834Z,100089.05
2018-11-25T05:34:03.226Z,100085.50
2018-11-25T05:35:08.297Z,100086.64
2018-11-25T05:36:11.757Z,100086.97
2018-11-25T05:37:15.212Z,100087.54
2018-11-25T05:38:18.629Z,100083.19
2018-11-25T05:39:22.062Z,100088.91
2018-11-25T05:40:25.503Z,100085.93
2018-11-25T05:41:28.901Z,100090.86
2018-11-25T05:42:32.427Z,100088.67
2018-11-25T05:43:35.850Z,100090.05
2018-11-25T05:44:39.275Z,100091.99
2018-11-25T05:45:42.648Z,100085.45
2018-11-25T05:46:46.105Z,100090.38
2018-11-25T05:47:49.586Z,100086.59
2018-11-25T05:48:53.024Z,100094.83
2018-11-25T05:49:56.437Z,100089.10
2018-11-25T05:50:59.861Z,100089.67
2018-11-25T05:52:03.308Z,100090.48
2018-11-25T05:53:06.713Z,100094.59
2018-11-25T05:54:10.115Z,100092.95
2018-11-25T05:55:14.154Z,100092.41
2018-11-25T05:56:17.557Z,100094.89
2018-11-25T05:57:20.966Z,100095.46
2018-11-25T05:58:24.589Z,100096.03
2018-11-25T05:59:28.008Z,100102.09
2018-11-25T06:00:33.319Z,100096.59
2018-11-25T06:01:36.734Z,100104.84
2018-11-25T06:02:40.163Z,100100.48
2018-11-25T06:03:43.598Z,100097.73
2018-11-25T06:04:46.956Z,100099.67
2018-11-25T06:05:50.372Z,100097.50
2018-11-25T06:06:53.764Z,100100.24
2018-11-25T06:07:57.147Z,100095.31
2018-11-25T06:09:00.590Z,100101.37
2018-11-25T06:10:04.116Z,100096.45
2018-11-25T06:11:07.541Z,100098.96
2018-11-25T06:12:10.970Z,100096.78
2018-11-25T06:13:14.370Z,100105.02
2018-11-25T06:14:17.768Z,100100.67
2018-11-25T06:15:21.197Z,100097.35
2018-11-25T06:16:24.618Z,100100.67
2018-11-25T06:17:28.031Z,100094.61
2018-11-25T06:18:31.407Z,100099.86
2018-11-25T06:19:34.820Z,100097.69
2018-11-25T06:20:38.187Z,100096.31
2018-11-25T06:21:41.605Z,100096.31
2018-11-25T06:22:45.467Z,100092.19
2018-11-25T06:23:48.854Z,100089.21
2018-11-25T06:24:52.255Z,100094.94
2018-11-25T06:25:55.677Z,100096.31
2018-11-25T06:26:59.132Z,100099.53
2018-11-25T06:28:02.603Z,100098.16
2018-11-25T06:29:06.309Z,100098.39
2018-11-25T06:30:12.806Z,100097.27
2018-11-25T06:31:16.845Z,100101.14
2018-11-25T06:32:20.457Z,100103.89
2018-11-25T06:33:23.865Z,100102.52
2018-11-25T06:34:27.242Z,100103.89
2018-11-25T06:35:30.646Z,100106.63
2018-11-25T06:36:34.003Z,100105.83
2018-11-25T06:37:37.423Z,100109.70
2018-11-25T06:38:40.784Z,100114.63
2018-11-25T06:39:44.169Z,100107.53
2018-11-25T06:40:47.699Z,100110.03
2018-11-25T06:41:51.089Z,100106.16
2018-11-25T06:42:54.489Z,100110.27
2018-11-25T06:43:57.916Z,100113.59
2018-11-25T06:45:01.326Z,100107.86
2018-11-25T06:46:07.299Z,100107.05
2018-11-25T06:47:10.720Z,100111.17
2018-11-25T06:48:14.177Z,100110.12
2018-11-25T06:49:17.570Z,100114.81
2018-11-25T06:50:21.005Z,100111.59
2018-11-25T06:51:24.467Z,100117.33
2018-11-25T06:52:27.878Z,100113.50
2018-11-25T06:53:31.287Z,100119.00
2018-11-25T06:54:34.717Z,100113.59
2018-11-25T06:55:38.847Z,100115.77
2018-11-25T06:56:42.302Z,100117.71
2018-11-25T06:57:45.961Z,100121.59
2018-11-25T06:58:49.381Z,100118.84
2018-11-25T06:59:52.791Z,100117.23
2018-11-25T07:01:03.139Z,100115.06
2018-11-25T07:02:14.907Z,100111.51
2018-11-25T07:03:18.306Z,100118.94
2018-11-25T07:04:21.728Z,100119.51
2018-11-25T07:05:25.148Z,100120.08
2018-11-25T07:06:28.843Z,100122.25
2018-11-25T07:07:32.247Z,100114.34
2018-11-25T07:08:35.650Z,100121.78
2018-11-25T07:09:39.092Z,100115.72
2018-11-25T07:10:42.506Z,100121.20
2018-11-25T07:11:45.886Z,100122.82
2018-11-25T07:12:50.521Z,100124.76
2018-11-25T07:13:53.936Z,100123.95
2018-11-25T07:14:57.376Z,100126.13
2018-11-25T07:16:00.742Z,100120.88
2018-11-25T07:17:04.119Z,100124.76
2018-11-25T07:18:07.526Z,100116.77
2018-11-25T07:19:10.996Z,100121.69
2018-11-25T07:20:15.539Z,100121.12
2018-11-25T07:21:19.011Z,100123.39
2018-11-25T07:22:22.387Z,100113.22
2018-11-25T07:23:25.742Z,100122.02
2018-11-25T07:24:29.222Z,100116.52
2018-11-25T07:25:32.624Z,100123.39
2018-11-25T07:26:36.035Z,100117.90
2018-11-25T07:27:39.499Z,100122.02
2018-11-25T07:28:42.938Z,100123.39
2018-11-25T07:29:46.406Z,100123.39
2018-11-25T07:30:49.895Z,100122.02
2018-11-25T07:31:53.655Z,100116.28
2018-11-25T07:32:57.257Z,100124.52
2018-11-25T07:34:00.628Z,100122.58
2018-11-25T07:35:04.058Z,100118.22
2018-11-25T07:36:07.564Z,100116.86
2018-11-25T07:37:10.959Z,100123.15
2018-11-25T07:38:14.406Z,100121.78
2018-11-25T07:39:17.846Z,100114.91
2018-11-25T07:40:22.076Z,100114.11
2018-11-25T07:41:25.490Z,100120.41
2018-11-25T07:42:28.880Z,100123.95
2018-11-25T07:43:32.301Z,100121.78
2018-11-25T07:44:37.559Z,100119.59
2018-11-25T07:45:46.163Z,100118.46
2018-11-25T07:46:50.478Z,100114.34
2018-11-25T07:47:54.217Z,100116.52
2018-11-25T07:48:57.786Z,100114.91
2018-11-25T07:50:01.422Z,100114.91
2018-11-25T07:51:06.452Z,100119.59
2018-11-25T07:52:12.484Z,100125.09
2018-11-25T07:53:17.067Z,100121.20
2018-11-25T07:54:22.541Z,100119.59
2018-11-25T07:55:29.445Z,100120.16
2018-11-25T07:56:32.915Z,100127.27
2018-11-25T07:57:36.362Z,100124.52
2018-11-25T07:58:42.266Z,100128.07
2018-11-25T07:59:47.175Z,100129.20
2018-11-25T08:00:54.887Z,100121.54
2018-11-25T08:02:00.782Z,100116.05
2018-11-25T08:03:05.073Z,100119.03
2018-11-25T08:04:10.044Z,100115.24
2018-11-25T08:05:17.685Z,100117.18
2018-11-25T08:06:23.684Z,100117.18
2018-11-25T08:07:30.185Z,100114.20
2018-11-25T08:08:34.563Z,100118.31
2018-11-25T08:09:40.569Z,100108.71
2018-11-25T08:10:46.170Z,100113.96
2018-11-25T08:11:52.484Z,100108.23
2018-11-25T08:12:58.427Z,100101.37
2018-11-25T08:14:01.835Z,100106.30
2018-11-25T08:15:06.054Z,100107.43
2018-11-25T08:16:09.548Z,100100.00
2018-11-25T08:17:13.029Z,100111.55
2018-11-25T08:18:16.518Z,100109.34
2018-11-25T08:19:19.937Z,100106.59
2018-11-25T08:20:23.565Z,100101.37
2018-11-25T08:21:27.004Z,100093.77
2018-11-25T08:22:30.411Z,100096.98
2018-11-25T08:23:33.836Z,100093.20
2018-11-25T08:24:37.223Z,100090.22
2018-11-25T08:25:40.660Z,100095.14
2018-11-25T08:26:44.105Z,100091.59
2018-11-25T08:27:47.656Z,100094.90
2018-11-25T08:28:51.058Z,100092.16
2018-11-25T08:29:54.478Z,100089.17
2018-11-25T08:30:57.877Z,100087.80
2018-11-25T08:32:01.278Z,100089.17
2018-11-25T08:33:04.798Z,100086.19
2018-11-25T08:34:08.198Z,100084.81
2018-11-25T08:35:12.246Z,100084.02
2018-11-25T08:36:15.651Z,100086.76
2018-11-25T08:37:19.125Z,100086.09
2018-11-25T08:38:22.521Z,100087.14
2018-11-25T08:39:25.980Z,100084.16
2018-11-25T08:40:29.518Z,100085.53
2018-11-25T08:41:32.913Z,100092.16
2018-11-25T08:42:36.432Z,100086.42
2018-11-25T08:43:39.868Z,100090.78
2018-11-25T08:44:43.345Z,100090.78
2018-11-25T08:45:46.787Z,100097.08
2018-11-25T08:46:50.391Z,100093.53
2018-11-25T08:47:53.833Z,100093.53
2018-11-25T08:48:57.262Z,100097.88
2018-11-25T08:50:00.745Z,100096.52
2018-11-25T08:51:04.437Z,100102.56
2018-11-25T08:52:07.882Z,100100.86
2018-11-25T08:53:11.336Z,100093.44
2018-11-25T08:54:14.856Z,100098.36
2018-11-25T08:55:19.462Z,100094.24
2018-11-25T08:56:22.873Z,100094.52
2018-11-25T08:57:26.311Z,100098.06
2018-11-25T08:58:29.739Z,100091.50
2018-11-25T08:59:33.203Z,100091.77
2018-11-25T09:00:36.630Z,100092.33
2018-11-25T09:01:40.035Z,100095.88
2018-11-25T09:02:43.467Z,100093.14
2018-11-25T09:03:47.446Z,100093.70
2018-11-25T09:04:50.886Z,100099.73
2018-11-25T09:05:54.303Z,100094.24
2018-11-25T09:06:57.703Z,100084.39
2018-11-25T09:08:01.108Z,100089.65
2018-11-25T09:09:06.361Z,100095.94
2018-11-25T09:10:12.102Z,100094.90
2018-11-25T09:11:15.564Z,100103.38
2018-11-25T09:12:18.988Z,100105.55
2018-11-25T09:13:22.418Z,100101.19
2018-11-25T09:14:25.851Z,100098.45
2018-11-25T09:15:30.600Z,100095.47
2018-11-25T09:16:34.016Z,100096.84
2018-11-25T09:17:37.411Z,100094.90
2018-11-25T09:18:40.816Z,100092.39
2018-11-25T09:19:44.221Z,100092.39
2018-11-25T09:20:47.664Z,100089.89
2018-11-25T09:21:51.114Z,100095.38
2018-11-25T09:22:54.513Z,100093.20
2018-11-25T09:23:58.004Z,100095.61
2018-11-25T09:25:01.404Z,100096.18
2018-11-25T09:26:04.913Z,100098.86
2018-11-25T09:27:08.309Z,100099.67
2018-11-25T09:28:11.679Z,100098.53
2018-11-25T09:29:15.103Z,100098.30
2018-11-25T09:30:22.756Z,100097.97
2018-11-25T09:31:26.194Z,100101.28
2018-11-25T09:32:29.615Z,100096.03
2018-11-25T09:33:33.048Z,100091.67
2018-11-25T09:34:36.431Z,100101.28
2018-11-25T09:35:39.840Z,100097.73
2018-11-25T09:36:43.280Z,100095.79
2018-11-25T09:37:46.761Z,100097.73
2018-11-25T09:38:50.207Z,100096.92
2018-11-25T09:39:53.683Z,100097.49
2018-11-25T09:40:59.316Z,100093.94
2018-11-25T09:42:00.614Z,100093.38
2018-11-25T09:43:04.134Z,100091.77
2018-11-25T09:44:07.568Z,100095.88
2018-11-25T09:45:14.245Z,100096.69
2018-11-25T09:46:17.672Z,100086.01
2018-11-25T09:47:21.119Z,100086.58
2018-11-25T09:48:25.142Z,100086.58
2018-11-25T09:49:28.555Z,100087.95
2018-11-25T09:50:31.959Z,100082.78
2018-11-25T09:51:35.371Z,100089.08
2018-11-25T09:52:38.933Z,100087.47
2018-11-25T09:53:42.349Z,100084.73
2018-11-25T09:54:45.872Z,100086.09
2018-11-25T09:55:49.353Z,100079.80
2018-11-25T09:56:53.196Z,100088.03
2018-11-25T09:57:58.073Z,100083.92
2018-11-25T09:59:01.588Z,100083.92
2018-11-25T10:00:37.080Z,100084.73
2018-11-25T10:01:40.524Z,100082.31
2018-11-25T10:02:43.945Z,100082.55
2018-11-25T10:03:47.406Z,100079.56
2018-11-25T10:04:50.868Z,100083.69
2018-11-25T10:05:54.293Z,100083.69
2018-11-25T10:06:57.705Z,100081.50
2018-11-25T10:08:01.124Z,100077.06
2018-11-25T10:09:06.517Z,100077.06
2018-11-25T10:10:13.406Z,100073.27
2018-11-25T10:11:16.918Z,100068.59
2018-11-25T10:12:20.301Z,100069.16
2018-11-25T10:13:24.327Z,100072.14
2018-11-25T10:14:27.738Z,100069.39
2018-11-25T10:15:31.460Z,100071.57
2018-11-25T10:16:34.909Z,100072.94
2018-11-25T10:17:38.389Z,100069.39
2018-11-25T10:18:43.409Z,100078.20
2018-11-25T10:19:46.927Z,100070.77
2018-11-25T10:20:51.046Z,100072.94
2018-11-25T10:21:54.486Z,100074.55
2018-11-25T10:22:57.875Z,100072.94
2018-11-25T10:24:01.267Z,100071.81
2018-11-25T10:25:05.116Z,100075.59
2018-11-25T10:26:08.702Z,100076.41
2018-11-25T10:27:12.190Z,100077.30
2018-11-25T10:28:15.634Z,100072.28
2018-11-25T10:29:19.031Z,100071.24
2018-11-25T10:30:25.690Z,100067.13
2018-11-25T10:31:29.728Z,100063.25
2018-11-25T10:32:33.417Z,100064.89
2018-11-25T10:33:36.807Z,100068.67
2018-11-25T10:34:40.206Z,100066.16
2018-11-25T10:35:43.626Z,100068.67
2018-11-25T10:36:47.057Z,100065.92
2018-11-25T10:37:50.422Z,100067.54
2018-11-25T10:38:53.802Z,100061.72
2018-11-25T10:39:57.215Z,100062.20
2018-11-25T10:41:00.617Z,100057.42
2018-11-25T10:42:04.963Z,100056.69
2018-11-25T10:43:08.436Z,100051.91
2018-11-25T10:44:11.898Z,100057.21
2018-11-25T10:45:17.222Z,100053.70
2018-11-25T10:46:20.652Z,100047.29
2018-11-25T10:47:24.170Z,100044.69
2018-11-25T10:48:27.621Z,100055.31
2018-11-25T10:49:31.006Z,100054.58
2018-11-25T10:50:34.438Z,100045.62
2018-11-25T10:51:37.881Z,100048.90
2018-11-25T10:52:41.387Z,100051.91
2018-11-25T10:53:44.816Z,100046.41
2018-11-25T10:54:48.328Z,100049.39
2018-11-25T10:55:51.824Z,100046.64
2018-11-25T10:56:55.285Z,100048.13
2018-11-25T10:57:58.735Z,100046.62
2018-11-25T10:59:02.238Z,100041.45
2018-11-25T11:00:21.013Z,100045.75
2018-11-25T11:01:29.634Z,100042.88
2018-11-25T11:02:38.419Z,100046.53
2018-11-25T11:03:47.124Z,100042.41
2018-11-25T11:04:55.941Z,100045.39
2018-11-25T11:06:04.787Z,100043.00
2018-11-25T11:07:13.911Z,100043.63
2018-11-25T11:08:17.494Z,100043.42
2018-11-25T11:09:20.864Z,100040.67
2018-11-25T11:10:24.259Z,100038.62
2018-11-25T11:11:27.678Z,100033.52
2018-11-25T11:12:31.143Z,100038.23
2018-11-25T11:13:34.630Z,100036.30
2018-11-25T11:14:38.018Z,100033.78
2018-11-25T11:15:41.462Z,100038.81
2018-11-25T11:16:44.912Z,100036.63
2018-11-25T11:17:48.463Z,100034.45
2018-11-25T11:18:51.916Z,100035.16
2018-11-25T11:19:55.349Z,100038.98
2018-11-25T11:20:58.743Z,100042.56
2018-11-25T11:22:02.187Z,100039.94
2018-11-25T11:23:06.130Z,100035.97
2018-11-25T11:24:09.634Z,100035.67
2018-11-25T11:25:13.094Z,100040.77
2018-11-25T11:26:27.065Z,100036.66
2018-11-25T11:27:30.500Z,100045.18
2018-11-25T11:28:33.995Z,100043.70
2018-11-25T11:29:37.456Z,100041.06
2018-11-25T11:30:40.871Z,100038.54
2018-11-25T11:31:44.359Z,100039.69
2018-11-25T11:32:49.529Z,100039.34
2018-11-25T11:33:53.126Z,100038.20
2018-11-25T11:34:56.619Z,100041.98
2018-11-25T11:36:00.322Z,100036.02
2018-11-25T11:37:04.141Z,100036.25
2018-11-25T11:38:07.734Z,100035.14
2018-11-25T11:39:11.346Z,100035.14
2018-11-25T11:40:15.715Z,100028.18
2018-11-25T11:41:19.178Z,100026.69
2018-11-25T11:42:28.547Z,100033.48
2018-11-25T11:43:26.094Z,100036.95
2018-11-25T11:44:29.516Z,100029.73
2018-11-25T11:45:32.961Z,100031.37
2018-11-25T11:46:36.375Z,100036.52
2018-11-25T11:47:39.816Z,100035.02
2018-11-25T11:48:43.244Z,100034.33
2018-11-25T11:49:46.727Z,100037.09
2018-11-25T11:50:50.162Z,100034.33
2018-11-25T11:51:53.638Z,100036.75
2018-11-25T11:52:57.072Z,100037.67
2018-11-25T11:54:00.486Z,100040.08
2018-11-25T11:55:03.976Z,100034.67
2018-11-25T11:56:07.386Z,100028.16
2018-11-25T11:57:10.755Z,100027.91
2018-11-25T11:58:14.187Z,100028.47
2018-11-25T11:59:17.599Z,100027.68
2018-11-25T12:00:27.306Z,100032.05
2018-11-25T12:01:30.733Z,100034.09
2018-11-25T12:02:34.231Z,100033.05
2018-11-25T12:03:37.701Z,100039.59
2018-11-25T12:04:41.142Z,100031.09
2018-11-25T12:05:44.825Z,100024.67
2018-11-25T12:06:48.282Z,100025.12
2018-11-25T12:07:51.730Z,100027.78